sensor_id;sensor_type;location;lat;lon;timestamp;pressure;altitude;pressure_sealevel;temperature;humidity
37694;BME280;23531;50.122;8.644;2022-12-29T00:00:42;99781.63;;;10.51;74.73
37694;BME280;23531;50.122;8.644;2022-12-29T00:02:43;99779.88;;;10.45;75.33
37694;BME280;23531;50.122;8.644;2022-12-29T00:04:45;99777.28;;;10.38;75.45
37694;BME280;23531;50.122;8.644;2022-12-29T00:06:46;99773.97;;;10.36;75.70
37694;BME280;23531;50.122;8.644;2022-12-29T00:08:48;99776.34;;;10.44;75.60
37694;BME280;23531;50.122;8.644;2022-12-29T00:10:49;99770.44;;;10.54;75.68
37694;BME280;23531;50.122;8.644;2022-12-29T00:12:52;99767.38;;;10.50;75.38
37694;BME280;23531;50.122;8.644;2022-12-29T00:15:11;99773.19;;;10.66;75.48
37694;BME280;23531;50.122;8.644;2022-12-29T00:17:29;99778.44;;;10.61;75.58
37694;BME280;23531;50.122;8.644;2022-12-29T00:19:31;99768.97;;;10.58;75.99
37694;BME280;23531;50.122;8.644;2022-12-29T00:21:49;99761.44;;;10.48;76.92
37694;BME280;23531;50.122;8.644;2022-12-29T00:24:09;99777.28;;;10.38;77.43
37694;BME280;23531;50.122;8.644;2022-12-29T00:26:44;99781.44;;;10.34;79.01
37694;BME280;23531;50.122;8.644;2022-12-29T00:29:04;99772.59;;;10.27;79.71
37694;BME280;23531;50.122;8.644;2022-12-29T00:31:23;99778.81;;;10.28;79.24
37694;BME280;23531;50.122;8.644;2022-12-29T00:33:42;99782.69;;;10.32;79.79
37694;BME280;23531;50.122;8.644;2022-12-29T00:36:01;99777.41;;;10.43;79.86
37694;BME280;23531;50.122;8.644;2022-12-29T00:38:04;99772.03;;;10.43;79.67
37694;BME280;23531;50.122;8.644;2022-12-29T00:40:25;99778.13;;;10.50;79.48
37694;BME280;23531;50.122;8.644;2022-12-29T00:42:43;99773.94;;;10.54;79.38
37694;BME280;23531;50.122;8.644;2022-12-29T00:45:04;99783.06;;;10.53;79.32
37694;BME280;23531;50.122;8.644;2022-12-29T00:47:05;99777.31;;;10.50;79.50
37694;BME280;23531;50.122;8.644;2022-12-29T00:49:07;99781.06;;;10.49;79.41
37694;BME280;23531;50.122;8.644;2022-12-29T00:51:26;99779.78;;;10.51;79.74
37694;BME280;23531;50.122;8.644;2022-12-29T00:53:28;99772.41;;;10.47;80.16
37694;BME280;23531;50.122;8.644;2022-12-29T00:55:29;99774.94;;;10.42;80.80
37694;BME280;23531;50.122;8.644;2022-12-29T00:57:30;99764.25;;;10.53;80.49
37694;BME280;23531;50.122;8.644;2022-12-29T00:59:32;99762.25;;;10.49;80.62
37694;BME280;23531;50.122;8.644;2022-12-29T01:01:34;99772.84;;;10.44;81.26
37694;BME280;23531;50.122;8.644;2022-12-29T01:03:36;99765.75;;;10.49;81.38
37694;BME280;23531;50.122;8.644;2022-12-29T01:05:38;99756.88;;;10.49;81.20
37694;BME280;23531;50.122;8.644;2022-12-29T01:07:39;99754.63;;;10.46;82.20
37694;BME280;23531;50.122;8.644;2022-12-29T01:09:40;99758.81;;;10.60;81.93
37694;BME280;23531;50.122;8.644;2022-12-29T01:11:59;99756.47;;;10.64;81.55
37694;BME280;23531;50.122;8.644;2022-12-29T01:14:00;99749.44;;;10.63;81.71
37694;BME280;23531;50.122;8.644;2022-12-29T01:16:02;99757.06;;;10.66;82.33
37694;BME280;23531;50.122;8.644;2022-12-29T01:18:04;99761.28;;;10.73;82.04
37694;BME280;23531;50.122;8.644;2022-12-29T01:20:06;99759.75;;;10.66;81.70
37694;BME280;23531;50.122;8.644;2022-12-29T01:22:07;99751.03;;;10.70;81.64
37694;BME280;23531;50.122;8.644;2022-12-29T01:24:09;99744.94;;;10.75;81.15
37694;BME280;23531;50.122;8.644;2022-12-29T01:26:10;99741.91;;;10.71;81.90
37694;BME280;23531;50.122;8.644;2022-12-29T01:28:12;99742.41;;;10.62;82.06
37694;BME280;23531;50.122;8.644;2022-12-29T01:30:14;99734.06;;;10.70;82.68
37694;BME280;23531;50.122;8.644;2022-12-29T01:32:15;99733.78;;;10.89;83.14
37694;BME280;23531;50.122;8.644;2022-12-29T01:34:18;99733.63;;;11.14;82.84
37694;BME280;23531;50.122;8.644;2022-12-29T01:36:19;99735.94;;;11.11;81.46
37694;BME280;23531;50.122;8.644;2022-12-29T01:38:20;99739.53;;;10.93;81.40
37694;BME280;23531;50.122;8.644;2022-12-29T01:40:21;99736.09;;;10.86;82.26
37694;BME280;23531;50.122;8.644;2022-12-29T01:42:24;99736.69;;;10.88;82.18
37694;BME280;23531;50.122;8.644;2022-12-29T01:44:49;99741.69;;;10.84;81.87
37694;BME280;23531;50.122;8.644;2022-12-29T01:46:50;99746.84;;;10.86;81.74
37694;BME280;23531;50.122;8.644;2022-12-29T01:48:53;99753.75;;;10.82;82.40
37694;BME280;23531;50.122;8.644;2022-12-29T01:50:58;99747.69;;;10.86;82.55
37694;BME280;23531;50.122;8.644;2022-12-29T01:53:00;99750.09;;;10.76;83.46
37694;BME280;23531;50.122;8.644;2022-12-29T01:55:02;99753.28;;;10.85;83.47
37694;BME280;23531;50.122;8.644;2022-12-29T01:57:07;99738.88;;;10.79;83.59
37694;BME280;23531;50.122;8.644;2022-12-29T01:59:10;99747.56;;;10.81;83.48
37694;BME280;23531;50.122;8.644;2022-12-29T02:01:13;99757.00;;;10.84;83.90
37694;BME280;23531;50.122;8.644;2022-12-29T02:03:15;99755.91;;;10.91;83.07
37694;BME280;23531;50.122;8.644;2022-12-29T02:05:19;99746.63;;;10.87;83.71
37694;BME280;23531;50.122;8.644;2022-12-29T02:07:23;99743.03;;;10.94;84.34
37694;BME280;23531;50.122;8.644;2022-12-29T02:09:26;99741.19;;;10.94;83.09
37694;BME280;23531;50.122;8.644;2022-12-29T02:11:28;99742.84;;;11.18;83.54
37694;BME280;23531;50.122;8.644;2022-12-29T02:13:30;99744.09;;;10.93;83.25
37694;BME280;23531;50.122;8.644;2022-12-29T02:15:34;99737.16;;;10.85;83.62
37694;BME280;23531;50.122;8.644;2022-12-29T02:17:42;99741.97;;;10.83;84.16
37694;BME280;23531;50.122;8.644;2022-12-29T02:19:58;99748.16;;;10.95;84.23
37694;BME280;23531;50.122;8.644;2022-12-29T02:22:05;99742.06;;;10.88;84.12
37694;BME280;23531;50.122;8.644;2022-12-29T02:24:17;99739.56;;;10.75;84.39
37694;BME280;23531;50.122;8.644;2022-12-29T02:26:27;99735.28;;;10.85;84.31
37694;BME280;23531;50.122;8.644;2022-12-29T02:28:37;99750.16;;;10.88;84.32
37694;BME280;23531;50.122;8.644;2022-12-29T02:30:52;99746.19;;;10.90;83.96
37694;BME280;23531;50.122;8.644;2022-12-29T02:32:59;99751.19;;;10.87;83.91
37694;BME280;23531;50.122;8.644;2022-12-29T02:35:07;99744.38;;;10.84;84.45
37694;BME280;23531;50.122;8.644;2022-12-29T02:37:11;99736.31;;;10.84;84.57
37694;BME280;23531;50.122;8.644;2022-12-29T02:39:15;99735.19;;;10.92;84.64
37694;BME280;23531;50.122;8.644;2022-12-29T02:41:21;99728.56;;;11.06;84.78
37694;BME280;23531;50.122;8.644;2022-12-29T02:43:25;99715.47;;;11.10;83.74
37694;BME280;23531;50.122;8.644;2022-12-29T02:45:29;99697.91;;;11.07;83.83
37694;BME280;23531;50.122;8.644;2022-12-29T02:47:37;99715.78;;;10.90;83.63
37694;BME280;23531;50.122;8.644;2022-12-29T02:49:43;99719.47;;;10.77;84.29
37694;BME280;23531;50.122;8.644;2022-12-29T02:51:50;99727.63;;;10.71;84.91
37694;BME280;23531;50.122;8.644;2022-12-29T02:53:52;99725.28;;;10.74;84.47
37694;BME280;23531;50.122;8.644;2022-12-29T02:56:12;99724.47;;;10.74;84.42
37694;BME280;23531;50.122;8.644;2022-12-29T02:58:17;99719.47;;;10.77;84.99
37694;BME280;23531;50.122;8.644;2022-12-29T03:00:19;99720.19;;;10.84;84.65
37694;BME280;23531;50.122;8.644;2022-12-29T03:02:26;99716.81;;;10.89;84.42
37694;BME280;23531;50.122;8.644;2022-12-29T03:04:34;99708.41;;;10.97;84.28
37694;BME280;23531;50.122;8.644;2022-12-29T03:06:42;99715.44;;;10.98;84.17
37694;BME280;23531;50.122;8.644;2022-12-29T03:08:53;99700.34;;;10.97;83.62
37694;BME280;23531;50.122;8.644;2022-12-29T03:10:59;99713.50;;;11.05;83.85
37694;BME280;23531;50.122;8.644;2022-12-29T03:13:02;99711.38;;;11.07;84.11
37694;BME280;23531;50.122;8.644;2022-12-29T03:15:22;99711.69;;;10.99;83.56
37694;BME280;23531;50.122;8.644;2022-12-29T03:17:46;99709.34;;;10.91;83.67
37694;BME280;23531;50.122;8.644;2022-12-29T03:19:51;99715.78;;;10.90;83.65
37694;BME280;23531;50.122;8.644;2022-12-29T03:21:54;99694.97;;;10.97;83.80
37694;BME280;23531;50.122;8.644;2022-12-29T03:24:14;99696.13;;;10.89;83.97
37694;BME280;23531;50.122;8.644;2022-12-29T03:26:16;99690.59;;;10.84;84.14
37694;BME280;23531;50.122;8.644;2022-12-29T03:28:24;99687.72;;;10.98;84.30
37694;BME280;23531;50.122;8.644;2022-12-29T03:30:26;99693.81;;;10.93;83.87
37694;BME280;23531;50.122;8.644;2022-12-29T03:32:31;99681.53;;;10.97;83.21
37694;BME280;23531;50.122;8.644;2022-12-29T03:34:33;99673.44;;;10.97;83.71
37694;BME280;23531;50.122;8.644;2022-12-29T03:36:39;99667.59;;;10.88;83.91
37694;BME280;23531;50.122;8.644;2022-12-29T03:38:43;99674.84;;;10.88;83.78
37694;BME280;23531;50.122;8.644;2022-12-29T03:40:46;99674.50;;;10.96;83.58
37694;BME280;23531;50.122;8.644;2022-12-29T03:42:49;99668.69;;;11.11;83.82
37694;BME280;23531;50.122;8.644;2022-12-29T03:44:53;99670.75;;;10.97;83.53
37694;BME280;23531;50.122;8.644;2022-12-29T03:46:55;99661.66;;;10.98;83.27
37694;BME280;23531;50.122;8.644;2022-12-29T03:48:56;99665.38;;;10.97;83.04
37694;BME280;23531;50.122;8.644;2022-12-29T03:50:57;99657.09;;;10.99;82.92
37694;BME280;23531;50.122;8.644;2022-12-29T03:53:00;99651.25;;;11.02;83.34
37694;BME280;23531;50.122;8.644;2022-12-29T03:55:01;99654.53;;;11.04;82.82
37694;BME280;23531;50.122;8.644;2022-12-29T03:57:02;99657.25;;;11.15;82.45
37694;BME280;23531;50.122;8.644;2022-12-29T03:59:04;99661.28;;;11.06;82.33
37694;BME280;23531;50.122;8.644;2022-12-29T04:01:05;99654.44;;;11.22;82.37
37694;BME280;23531;50.122;8.644;2022-12-29T04:03:06;99659.13;;;11.26;81.68
37694;BME280;23531;50.122;8.644;2022-12-29T04:05:08;99647.03;;;11.17;81.06
37694;BME280;23531;50.122;8.644;2022-12-29T04:07:09;99650.81;;;11.16;81.58
37694;BME280;23531;50.122;8.644;2022-12-29T04:09:12;99640.59;;;11.18;81.19
37694;BME280;23531;50.122;8.644;2022-12-29T04:11:13;99640.06;;;11.28;80.37
37694;BME280;23531;50.122;8.644;2022-12-29T04:13:14;99658.06;;;11.27;79.62
37694;BME280;23531;50.122;8.644;2022-12-29T04:15:16;99648.59;;;11.37;80.32
37694;BME280;23531;50.122;8.644;2022-12-29T04:17:17;99651.63;;;11.28;80.34
37694;BME280;23531;50.122;8.644;2022-12-29T04:19:19;99651.16;;;11.32;79.65
37694;BME280;23531;50.122;8.644;2022-12-29T04:21:20;99648.94;;;11.28;78.68
37694;BME280;23531;50.122;8.644;2022-12-29T04:23:20;99660.50;;;11.29;77.92
37694;BME280;23531;50.122;8.644;2022-12-29T04:25:23;99653.97;;;11.37;78.66
37694;BME280;23531;50.122;8.644;2022-12-29T04:27:24;99656.31;;;11.33;78.17
37694;BME280;23531;50.122;8.644;2022-12-29T04:29:25;99656.31;;;11.45;78.31
37694;BME280;23531;50.122;8.644;2022-12-29T04:31:27;99650.22;;;11.49;78.23
37694;BME280;23531;50.122;8.644;2022-12-29T04:33:28;99651.38;;;11.53;78.02
37694;BME280;23531;50.122;8.644;2022-12-29T04:35:29;99647.31;;;11.51;77.32
37694;BME280;23531;50.122;8.644;2022-12-29T04:37:30;99654.56;;;11.62;78.06
37694;BME280;23531;50.122;8.644;2022-12-29T04:39:32;99659.13;;;11.50;77.20
37694;BME280;23531;50.122;8.644;2022-12-29T04:41:35;99656.66;;;11.60;76.77
37694;BME280;23531;50.122;8.644;2022-12-29T04:43:36;99653.47;;;11.63;76.30
37694;BME280;23531;50.122;8.644;2022-12-29T04:45:38;99656.31;;;11.68;76.34
37694;BME280;23531;50.122;8.644;2022-12-29T04:47:39;99648.09;;;11.63;75.81
37694;BME280;23531;50.122;8.644;2022-12-29T04:49:40;99650.34;;;11.54;74.96
37694;BME280;23531;50.122;8.644;2022-12-29T04:51:42;99644.25;;;11.59;74.83
37694;BME280;23531;50.122;8.644;2022-12-29T04:53:43;99650.31;;;11.66;75.17
37694;BME280;23531;50.122;8.644;2022-12-29T04:55:47;99627.84;;;11.72;75.29
37694;BME280;23531;50.122;8.644;2022-12-29T04:57:50;99653.97;;;11.60;74.82
37694;BME280;23531;50.122;8.644;2022-12-29T04:59:51;99649.06;;;11.80;75.94
37694;BME280;23531;50.122;8.644;2022-12-29T05:01:52;99648.09;;;11.86;75.46
37694;BME280;23531;50.122;8.644;2022-12-29T05:03:54;99659.38;;;11.83;74.55
37694;BME280;23531;50.122;8.644;2022-12-29T05:05:55;99666.72;;;11.76;73.97
37694;BME280;23531;50.122;8.644;2022-12-29T05:07:57;99670.13;;;11.60;74.10
37694;BME280;23531;50.122;8.644;2022-12-29T05:09:58;99661.09;;;11.66;75.75
37694;BME280;23531;50.122;8.644;2022-12-29T05:11:59;99662.28;;;11.82;75.72
37694;BME280;23531;50.122;8.644;2022-12-29T05:14:02;99660.41;;;11.71;74.92
37694;BME280;23531;50.122;8.644;2022-12-29T05:16:04;99666.38;;;11.73;76.24
37694;BME280;23531;50.122;8.644;2022-12-29T05:18:05;99666.59;;;11.71;75.88
37694;BME280;23531;50.122;8.644;2022-12-29T05:20:07;99666.59;;;11.71;76.41
37694;BME280;23531;50.122;8.644;2022-12-29T05:22:08;99663.44;;;11.62;76.83
37694;BME280;23531;50.122;8.644;2022-12-29T05:24:09;99660.28;;;11.77;76.90
37694;BME280;23531;50.122;8.644;2022-12-29T05:26:11;99670.72;;;11.74;77.12
37694;BME280;23531;50.122;8.644;2022-12-29T05:28:12;99665.34;;;11.62;76.85
37694;BME280;23531;50.122;8.644;2022-12-29T05:30:15;99662.97;;;11.54;77.56
37694;BME280;23531;50.122;8.644;2022-12-29T05:32:16;99661.91;;;11.43;78.26
37694;BME280;23531;50.122;8.644;2022-12-29T05:34:17;99656.78;;;11.42;78.84
37694;BME280;23531;50.122;8.644;2022-12-29T05:36:19;99648.47;;;11.55;79.10
37694;BME280;23531;50.122;8.644;2022-12-29T05:38:20;99648.59;;;11.48;78.71
37694;BME280;23531;50.122;8.644;2022-12-29T05:40:22;99637.59;;;11.50;78.82
37694;BME280;23531;50.122;8.644;2022-12-29T05:42:23;99643.91;;;11.55;78.46
37694;BME280;23531;50.122;8.644;2022-12-29T05:44:24;99648.09;;;11.63;78.34
37694;BME280;23531;50.122;8.644;2022-12-29T05:46:27;99643.78;;;11.74;77.69
37694;BME280;23531;50.122;8.644;2022-12-29T05:48:28;99641.66;;;11.64;77.15
37694;BME280;23531;50.122;8.644;2022-12-29T05:50:29;99642.00;;;11.68;76.49
37694;BME280;23531;50.122;8.644;2022-12-29T05:52:31;99635.09;;;11.72;76.57
37694;BME280;23531;50.122;8.644;2022-12-29T05:54:32;99642.50;;;11.76;75.79
37694;BME280;23531;50.122;8.644;2022-12-29T05:56:33;99642.00;;;11.68;75.61
37694;BME280;23531;50.122;8.644;2022-12-29T05:58:35;99642.25;;;11.66;75.90
37694;BME280;23531;50.122;8.644;2022-12-29T06:00:37;99638.97;;;11.76;75.52
37694;BME280;23531;50.122;8.644;2022-12-29T06:02:40;99645.88;;;11.72;75.17
37694;BME280;23531;50.122;8.644;2022-12-29T06:04:41;99640.72;;;11.70;75.43
37694;BME280;23531;50.122;8.644;2022-12-29T06:06:42;99634.75;;;11.68;74.61
37694;BME280;23531;50.122;8.644;2022-12-29T06:08:44;99646.25;;;11.75;75.13
37694;BME280;23531;50.122;8.644;2022-12-29T06:10:45;99642.72;;;11.86;74.80
37694;BME280;23531;50.122;8.644;2022-12-29T06:12:46;99642.25;;;11.78;73.66
37694;BME280;23531;50.122;8.644;2022-12-29T06:14:47;99644.25;;;11.82;74.04
37694;BME280;23531;50.122;8.644;2022-12-29T06:16:49;99638.50;;;11.90;73.42
37694;BME280;23531;50.122;8.644;2022-12-29T06:18:51;99656.44;;;11.85;72.96
37694;BME280;23531;50.122;8.644;2022-12-29T06:20:53;99651.06;;;11.85;73.38
37694;BME280;23531;50.122;8.644;2022-12-29T06:22:54;99648.09;;;11.86;73.83
37694;BME280;23531;50.122;8.644;2022-12-29T06:24:56;99635.22;;;11.88;72.63
37694;BME280;23531;50.122;8.644;2022-12-29T06:26:57;99642.38;;;11.94;73.52
37694;BME280;23531;50.122;8.644;2022-12-29T06:28:58;99632.06;;;11.91;72.95
37694;BME280;23531;50.122;8.644;2022-12-29T06:30:59;99634.06;;;11.84;72.37
37694;BME280;23531;50.122;8.644;2022-12-29T06:33:02;99637.91;;;11.88;73.40
37694;BME280;23531;50.122;8.644;2022-12-29T06:35:05;99645.53;;;11.91;73.14
37694;BME280;23531;50.122;8.644;2022-12-29T06:37:07;99647.25;;;11.97;72.83
37694;BME280;23531;50.122;8.644;2022-12-29T06:39:08;99633.19;;;12.07;73.35
37694;BME280;23531;50.122;8.644;2022-12-29T06:41:09;99638.69;;;12.00;73.09
37694;BME280;23531;50.122;8.644;2022-12-29T06:43:10;99642.69;;;11.98;72.35
37694;BME280;23531;50.122;8.644;2022-12-29T06:45:12;99640.59;;;11.88;72.25
37694;BME280;23531;50.122;8.644;2022-12-29T06:47:13;99640.22;;;11.96;73.32
37694;BME280;23531;50.122;8.644;2022-12-29T06:49:14;99639.66;;;12.06;72.91
37694;BME280;23531;50.122;8.644;2022-12-29T06:51:17;99641.19;;;11.90;73.00
37694;BME280;23531;50.122;8.644;2022-12-29T06:53:18;99637.00;;;11.83;73.29
37694;BME280;23531;50.122;8.644;2022-12-29T06:55:19;99642.84;;;11.80;73.90
37694;BME280;23531;50.122;8.644;2022-12-29T06:57:21;99642.84;;;11.80;74.01
37694;BME280;23531;50.122;8.644;2022-12-29T06:59:23;99650.22;;;11.96;74.45
37694;BME280;23531;50.122;8.644;2022-12-29T07:01:24;99649.03;;;11.92;74.86
37694;BME280;23531;50.122;8.644;2022-12-29T07:03:25;99650.13;;;11.79;75.33
37694;BME280;23531;50.122;8.644;2022-12-29T07:05:27;99636.97;;;11.94;76.23
37694;BME280;23531;50.122;8.644;2022-12-29T07:07:30;99635.00;;;11.78;75.63
37694;BME280;23531;50.122;8.644;2022-12-29T07:09:31;99633.25;;;11.72;76.40
37694;BME280;23531;50.122;8.644;2022-12-29T07:11:32;99627.72;;;11.67;75.66
37694;BME280;23531;50.122;8.644;2022-12-29T07:13:35;99638.84;;;11.71;76.03
37694;BME280;23531;50.122;8.644;2022-12-29T07:15:36;99621.06;;;11.70;75.92
37694;BME280;23531;50.122;8.644;2022-12-29T07:17:37;99617.91;;;11.61;76.44
37694;BME280;23531;50.122;8.644;2022-12-29T07:19:39;99622.34;;;11.67;76.21
37694;BME280;23531;50.122;8.644;2022-12-29T07:21:40;99627.50;;;11.80;76.09
37694;BME280;23531;50.122;8.644;2022-12-29T07:23:43;99633.00;;;11.85;75.46
37694;BME280;23531;50.122;8.644;2022-12-29T07:25:44;99630.09;;;11.75;75.34
37694;BME280;23531;50.122;8.644;2022-12-29T07:27:46;99622.47;;;11.72;75.34
37694;BME280;23531;50.122;8.644;2022-12-29T07:29:48;99625.41;;;11.71;73.97
37694;BME280;23531;50.122;8.644;2022-12-29T07:31:49;99627.84;;;11.72;74.47
37694;BME280;23531;50.122;8.644;2022-12-29T07:33:51;99624.09;;;11.73;74.77
37694;BME280;23531;50.122;8.644;2022-12-29T07:35:52;99608.41;;;11.82;74.41
37694;BME280;23531;50.122;8.644;2022-12-29T07:37:53;99617.31;;;11.82;73.94
37694;BME280;23531;50.122;8.644;2022-12-29T07:39:56;99618.38;;;11.81;73.52
37694;BME280;23531;50.122;8.644;2022-12-29T07:41:57;99618.72;;;11.73;73.83
37694;BME280;23531;50.122;8.644;2022-12-29T07:43:58;99632.19;;;11.73;72.76
37694;BME280;23531;50.122;8.644;2022-12-29T07:46:00;99630.53;;;11.72;73.34
37694;BME280;23531;50.122;8.644;2022-12-29T07:48:01;99618.16;;;11.83;74.03
37694;BME280;23531;50.122;8.644;2022-12-29T07:50:03;99629.94;;;11.93;74.11
37694;BME280;23531;50.122;8.644;2022-12-29T07:52:04;99633.09;;;11.90;73.22
37694;BME280;23531;50.122;8.644;2022-12-29T07:54:06;99637.53;;;11.96;73.45
37694;BME280;23531;50.122;8.644;2022-12-29T07:56:09;99639.88;;;12.05;72.96
37694;BME280;23531;50.122;8.644;2022-12-29T07:58:10;99634.47;;;12.05;73.99
37694;BME280;23531;50.122;8.644;2022-12-29T08:00:12;99628.75;;;12.01;72.63
37694;BME280;23531;50.122;8.644;2022-12-29T08:02:13;99646.31;;;12.04;72.77
37694;BME280;23531;50.122;8.644;2022-12-29T08:04:15;99652.28;;;12.06;72.99
37694;BME280;23531;50.122;8.644;2022-12-29T08:06:16;99638.69;;;12.00;72.27
37694;BME280;23531;50.122;8.644;2022-12-29T08:08:18;99645.88;;;11.95;72.88
37694;BME280;23531;50.122;8.644;2022-12-29T08:10:19;99655.00;;;11.94;73.00
37694;BME280;23531;50.122;8.644;2022-12-29T08:12:22;99655.22;;;12.04;73.65
37694;BME280;23531;50.122;8.644;2022-12-29T08:14:23;99652.56;;;11.92;73.25
37694;BME280;23531;50.122;8.644;2022-12-29T08:16:24;99656.97;;;11.98;73.69
37694;BME280;23531;50.122;8.644;2022-12-29T08:18:26;99661.44;;;12.05;73.65
37694;BME280;23531;50.122;8.644;2022-12-29T08:20:27;99663.06;;;12.06;74.16
37694;BME280;23531;50.122;8.644;2022-12-29T08:22:28;99677.81;;;12.15;74.35
37694;BME280;23531;50.122;8.644;2022-12-29T08:24:29;99671.44;;;12.21;73.85
37694;BME280;23531;50.122;8.644;2022-12-29T08:26:31;99675.00;;;12.10;73.84
37694;BME280;23531;50.122;8.644;2022-12-29T08:28:34;99687.06;;;12.19;73.83
37694;BME280;23531;50.122;8.644;2022-12-29T08:30:35;99684.47;;;12.12;74.02
37694;BME280;23531;50.122;8.644;2022-12-29T08:32:36;99694.09;;;12.08;73.66
37694;BME280;23531;50.122;8.644;2022-12-29T08:34:38;99688.84;;;12.02;74.00
37694;BME280;23531;50.122;8.644;2022-12-29T08:36:39;99688.38;;;12.05;74.71
37694;BME280;23531;50.122;8.644;2022-12-29T08:38:40;99689.19;;;12.05;74.84
37694;BME280;23531;50.122;8.644;2022-12-29T08:40:42;99684.50;;;12.00;74.23
37694;BME280;23531;50.122;8.644;2022-12-29T08:42:43;99688.69;;;12.08;74.85
37694;BME280;23531;50.122;8.644;2022-12-29T08:44:46;99693.16;;;12.14;74.88
37694;BME280;23531;50.122;8.644;2022-12-29T08:46:47;99681.13;;;12.05;74.14
37694;BME280;23531;50.122;8.644;2022-12-29T08:48:49;99694.38;;;11.95;74.58
37694;BME280;23531;50.122;8.644;2022-12-29T08:50:50;99688.69;;;12.08;74.91
37694;BME280;23531;50.122;8.644;2022-12-29T08:52:52;99696.47;;;11.93;74.54
37694;BME280;23531;50.122;8.644;2022-12-29T08:54:53;99706.19;;;11.94;74.74
37694;BME280;23531;50.122;8.644;2022-12-29T08:56:54;99706.66;;;11.91;75.23
37694;BME280;23531;50.122;8.644;2022-12-29T08:58:56;99716.84;;;11.89;75.74
37694;BME280;23531;50.122;8.644;2022-12-29T09:00:58;99707.97;;;11.77;76.70
37694;BME280;23531;50.122;8.644;2022-12-29T09:03:00;99717.81;;;11.83;78.07
37694;BME280;23531;50.122;8.644;2022-12-29T09:05:01;99723.28;;;11.76;77.90
37694;BME280;23531;50.122;8.644;2022-12-29T09:07:03;99725.38;;;11.74;78.93
37694;BME280;23531;50.122;8.644;2022-12-29T09:09:04;99723.28;;;11.76;78.92
37694;BME280;23531;50.122;8.644;2022-12-29T09:11:06;99724.47;;;11.80;79.60
37694;BME280;23531;50.122;8.644;2022-12-29T09:13:08;99733.84;;;11.78;80.49
37694;BME280;23531;50.122;8.644;2022-12-29T09:15:09;99727.84;;;11.76;80.92
37694;BME280;23531;50.122;8.644;2022-12-29T09:17:12;99727.63;;;11.77;81.70
37694;BME280;23531;50.122;8.644;2022-12-29T09:19:30;99723.97;;;11.72;81.22
37694;BME280;23531;50.122;8.644;2022-12-29T09:21:32;99727.63;;;11.77;81.46
37694;BME280;23531;50.122;8.644;2022-12-29T09:23:33;99736.06;;;11.81;81.21
37694;BME280;23531;50.122;8.644;2022-12-29T09:25:34;99743.44;;;11.85;80.53
37694;BME280;23531;50.122;8.644;2022-12-29T09:27:36;99739.81;;;11.80;81.21
37694;BME280;23531;50.122;8.644;2022-12-29T09:29:37;99749.50;;;11.69;81.75
37694;BME280;23531;50.122;8.644;2022-12-29T09:31:39;99751.25;;;11.63;82.51
37694;BME280;23531;50.122;8.644;2022-12-29T09:33:41;99750.69;;;11.73;82.63
37694;BME280;23531;50.122;8.644;2022-12-29T09:35:43;99764.19;;;11.85;82.31
37694;BME280;23531;50.122;8.644;2022-12-29T09:37:44;99765.91;;;12.14;83.23
37694;BME280;23531;50.122;8.644;2022-12-29T09:39:46;99773.31;;;12.19;82.58
37694;BME280;23531;50.122;8.644;2022-12-29T09:41:48;99772.81;;;12.22;82.02
37694;BME280;23531;50.122;8.644;2022-12-29T09:43:55;99770.38;;;12.09;82.94
37694;BME280;23531;50.122;8.644;2022-12-29T09:46:02;99778.44;;;11.97;83.76
37694;BME280;23531;50.122;8.644;2022-12-29T09:48:06;99784.34;;;11.94;84.81
37694;BME280;23531;50.122;8.644;2022-12-29T09:50:16;99765.56;;;11.99;85.30
37694;BME280;23531;50.122;8.644;2022-12-29T09:52:21;99755.03;;;11.97;84.46
37694;BME280;23531;50.122;8.644;2022-12-29T09:54:36;99773.06;;;11.85;85.01
37694;BME280;23531;50.122;8.644;2022-12-29T09:56:40;99780.09;;;11.86;85.17
37694;BME280;23531;50.122;8.644;2022-12-29T09:58:42;99772.59;;;11.88;84.62
37694;BME280;23531;50.122;8.644;2022-12-29T10:00:47;99774.59;;;11.81;85.03
37694;BME280;23531;50.122;8.644;2022-12-29T10:02:50;99776.47;;;11.81;85.41
37694;BME280;23531;50.122;8.644;2022-12-29T10:04:53;99779.59;;;11.66;86.02
37694;BME280;23531;50.122;8.644;2022-12-29T10:06:56;99763.06;;;11.62;86.16
37694;BME280;23531;50.122;8.644;2022-12-29T10:09:01;99773.28;;;11.60;86.10
37694;BME280;23531;50.122;8.644;2022-12-29T10:11:05;99774.41;;;11.53;85.91
37694;BME280;23531;50.122;8.644;2022-12-29T10:13:16;99769.38;;;11.45;86.42
37694;BME280;23531;50.122;8.644;2022-12-29T10:15:25;99769.38;;;11.45;86.30
37694;BME280;23531;50.122;8.644;2022-12-29T10:17:34;99766.91;;;11.43;86.28
37694;BME280;23531;50.122;8.644;2022-12-29T10:19:40;99762.22;;;11.39;86.10
37694;BME280;23531;50.122;8.644;2022-12-29T10:21:50;99764.34;;;11.37;86.20
37694;BME280;23531;50.122;8.644;2022-12-29T10:23:58;99762.34;;;11.44;85.48
37694;BME280;23531;50.122;8.644;2022-12-29T10:26:00;99765.59;;;11.34;85.31
37694;BME280;23531;50.122;8.644;2022-12-29T10:28:05;99765.75;;;11.39;85.21
37694;BME280;23531;50.122;8.644;2022-12-29T10:30:10;99751.69;;;11.37;85.25
37694;BME280;23531;50.122;8.644;2022-12-29T10:32:14;99772.41;;;11.37;84.81
37694;BME280;23531;50.122;8.644;2022-12-29T10:34:19;99761.50;;;11.32;84.16
37694;BME280;23531;50.122;8.644;2022-12-29T10:36:23;99757.06;;;11.37;83.75
37694;BME280;23531;50.122;8.644;2022-12-29T10:38:26;99762.69;;;11.36;83.48
37694;BME280;23531;50.122;8.644;2022-12-29T10:40:31;99770.16;;;11.34;82.57
37694;BME280;23531;50.122;8.644;2022-12-29T10:42:34;99766.56;;;11.40;83.12
37694;BME280;23531;50.122;8.644;2022-12-29T10:44:37;99773.34;;;11.42;82.76
37694;BME280;23531;50.122;8.644;2022-12-29T10:46:39;99773.34;;;11.42;81.98
37694;BME280;23531;50.122;8.644;2022-12-29T10:48:41;99769.38;;;11.45;81.71
37694;BME280;23531;50.122;8.644;2022-12-29T10:50:45;99769.38;;;11.45;81.43
37694;BME280;23531;50.122;8.644;2022-12-29T10:52:46;99762.94;;;11.46;80.32
37694;BME280;23531;50.122;8.644;2022-12-29T10:54:49;99769.25;;;11.51;80.98